Time;durP1;ratioP1;P1;durP2;ratioP2;P2;SDS_P1;SDS_P2;PMS_P1;PMS_P2;Temp;Humidity;BMP_temperature;BMP_pressure;BME280_temperature;BME280_humidity;BME280_pressure;Samples;Min_cycle;Max_cycle;Signal;HPM_P1;HPM_P2
2022/05/13 00:00:58;;;;;;;13.05;7.67;;;;;;;11.72;87.03;98191.72;1725644;80;21493;-82
2022/05/13 00:03:24;;;;;;;15.98;7.92;;;;;;;11.68;86.86;98196.89;1728491;80;22440;-85
2022/05/13 00:05:50;;;;;;;16.42;7.60;;;;;;;11.66;87.00;98199.63;1715969;80;20877;-85
2022/05/13 00:08:16;;;;;;;14.28;7.55;;;;;;;11.62;87.52;98202.08;1727506;82;21444;-83
2022/05/13 00:10:43;;;;;;;12.70;7.22;;;;;;;11.61;87.74;98203.17;1719853;82;21081;-81
2022/05/13 00:13:10;;;;;;;14.90;6.85;;;;;;;11.64;86.16;98205.89;1719703;80;21038;-82
2022/05/13 00:15:37;;;;;;;12.03;6.80;;;;;;;11.62;84.54;98199.91;1736641;80;21122;-81
2022/05/13 00:18:02;;;;;;;12.35;8.20;;;;;;;11.51;85.04;98196.45;1742854;81;20874;-85
2022/05/13 00:20:28;;;;;;;11.83;7.72;;;;;;;11.48;85.36;98186.18;1737481;80;20898;-85
2022/05/13 00:22:56;;;;;;;14.98;7.50;;;;;;;11.45;84.23;98192.98;1743043;81;21590;-84
2022/05/13 00:25:25;;;;;;;19.05;10.00;;;;;;;11.47;85.89;98187.27;1737424;82;21069;-85
2022/05/13 00:27:51;;;;;;;;;;;;;;;11.47;87.04;98185.37;1740172;82;21690;-85
2022/05/13 00:30:17;;;;;;;9.43;6.55;;;;;;;11.43;85.24;98183.48;1705033;82;20732;-85
2022/05/13 00:32:44;;;;;;;17.87;7.25;;;;;;;11.34;86.55;98175.67;1712725;80;21005;-85
2022/05/13 00:35:10;;;;;;;10.55;7.20;;;;;;;11.26;84.44;98182.50;1743177;82;21080;-82
2022/05/13 00:37:36;;;;;;;12.23;6.92;;;;;;;11.21;87.55;98187.42;1743285;81;21088;-81
2022/05/13 00:40:04;;;;;;;9.43;7.15;;;;;;;11.18;88.98;98187.15;1743197;82;21313;-85
2022/05/13 00:42:30;;;;;;;10.00;7.58;;;;;;;11.17;89.24;98192.31;1742954;81;21052;-81
2022/05/13 00:44:58;;;;;;;10.03;7.45;;;;;;;11.07;90.59;98189.66;1743318;82;20901;-85
2022/05/13 00:47:25;;;;;;;11.50;6.28;;;;;;;11.05;87.96;98180.45;1739867;81;21006;-85
2022/05/13 00:49:52;;;;;;;12.20;6.60;;;;;;;10.99;88.01;98179.66;1723295;80;21507;-84
2022/05/13 00:52:18;;;;;;;12.00;6.47;;;;;;;11.00;86.79;98181.81;1735201;80;21161;-81
2022/05/13 00:54:44;;;;;;;13.40;8.33;;;;;;;11.01;85.95;98184.80;1743352;82;20912;-85
2022/05/13 00:57:11;;;;;;;16.05;8.33;;;;;;;11.06;85.90;98196.17;1743228;81;20906;-85
2022/05/13 00:59:40;;;;;;;10.43;7.95;;;;;;;11.03;88.70;98194.84;1720213;82;21004;-81
2022/05/13 01:02:06;;;;;;;10.75;6.72;;;;;;;10.92;89.52;98194.59;1748544;82;21444;-82
2022/05/13 01:04:33;;;;;;;12.07;8.13;;;;;;;10.92;89.52;98194.59;1711811;80;21149;-86
2022/05/13 01:07:04;;;;;;;9.18;6.33;;;;;;;10.91;88.85;98199.20;1706951;83;22285;-85
2022/05/13 01:09:33;;;;;;;13.38;6.30;;;;;;;10.89;87.54;98191.91;1742698;82;21092;-85
2022/05/13 01:12:02;;;;;;;8.78;6.30;;;;;;;10.91;88.64;98188.36;1742948;81;21119;-81
2022/05/13 01:14:32;;;;;;;14.13;7.60;;;;;;;10.89;89.73;98176.99;1744196;81;21036;-81
2022/05/13 01:20:12;;;;;;;13.45;6.90;;;;;;;10.89;89.07;98186.48;1744192;81;21064;-81
2022/05/13 01:22:46;;;;;;;9.50;5.95;;;;;;;10.78;91.03;98187.62;1742970;81;21009;-82
2022/05/13 01:25:15;;;;;;;8.83;6.55;;;;;;;10.76;89.97;98180.83;1719911;80;20997;-85
2022/05/13 01:27:43;;;;;;;11.85;7.25;;;;;;;10.70;88.95;98170.02;1710854;82;21054;-82
2022/05/13 01:30:12;;;;;;;14.00;6.78;;;;;;;10.63;88.08;98161.92;1722497;80;21244;-81
2022/05/13 01:32:37;;;;;;;11.20;6.33;;;;;;;10.57;89.93;98161.11;1728364;80;20991;-82
2022/05/13 01:35:05;;;;;;;16.37;6.83;;;;;;;10.59;87.81;98167.06;1731171;80;20957;-85
2022/05/13 01:37:33;;;;;;;13.98;6.83;;;;;;;10.58;88.22;98172.21;1736498;82;21019;-85
2022/05/13 01:40:01;;;;;;;18.17;7.33;;;;;;;10.57;90.58;98173.85;1713400;80;20991;-81
2022/05/13 01:42:29;;;;;;;8.58;6.47;;;;;;;10.54;89.16;98157.61;1713514;83;21215;-85
2022/05/13 01:44:55;;;;;;;7.95;6.28;;;;;;;10.56;88.80;98170.33;1723659;80;21021;-85
2022/05/13 01:47:21;;;;;;;12.75;7.65;;;;;;;10.54;87.59;98164.92;1730048;80;21002;-85
2022/05/13 01:49:47;;;;;;;10.75;6.03;;;;;;;10.46;91.78;98148.69;1743398;82;20882;-85
2022/05/13 01:52:13;;;;;;;16.75;7.55;;;;;;;10.47;89.28;98146.80;1742115;81;21057;-84
2022/05/13 01:54:39;;;;;;;12.65;7.37;;;;;;;10.41;90.01;98146.80;1716572;80;21288;-85
2022/05/13 01:57:06;;;;;;;11.75;6.85;;;;;;;10.36;91.59;98152.79;1713610;83;20840;-85
2022/05/13 01:59:32;;;;;;;12.60;6.45;;;;;;;10.29;88.85;98136.01;1717877;80;21513;-85
2022/05/13 02:01:57;;;;;;;13.53;6.37;;;;;;;10.29;88.85;98136.01;1703136;84;20935;-82
2022/05/13 02:04:23;;;;;;;13.38;7.28;;;;;;;10.28;88.30;98143.88;1733474;80;20917;-82
2022/05/13 02:06:49;;;;;;;10.95;6.70;;;;;;;10.23;90.61;98133.84;1713676;83;21241;-85
2022/05/13 02:09:15;;;;;;;10.53;6.70;;;;;;;10.28;90.61;98136.55;1719249;80;20863;-81
2022/05/13 02:11:41;;;;;;;10.13;6.62;;;;;;;10.30;88.64;98131.67;1728573;81;20903;-81
2022/05/13 02:14:08;;;;;;;13.08;7.33;;;;;;;10.30;89.72;98134.37;1712873;82;21108;-81
2022/05/13 02:16:34;;;;;;;18.87;6.58;;;;;;;10.30;91.60;98134.37;1703481;84;21085;-85
2022/05/13 02:19:00;;;;;;;9.43;6.17;;;;;;;10.36;90.60;98132.47;1728338;80;21052;-81
2022/05/13 02:21:26;;;;;;;8.98;5.58;;;;;;;10.39;90.32;98141.39;1743228;81;20866;-85
2022/05/13 02:23:53;;;;;;;11.28;5.55;;;;;;;10.43;90.64;98136.52;1736814;80;21029;-81
2022/05/13 02:26:18;;;;;;;14.00;6.15;;;;;;;10.47;88.85;98138.12;1746976;82;21080;-85
2022/05/13 02:28:45;;;;;;;9.98;6.53;;;;;;;10.48;88.20;98140.28;1722836;81;20970;-84
2022/05/13 02:31:11;;;;;;;11.78;6.72;;;;;;;10.48;91.47;98138.93;1728534;80;21112;-81
2022/05/13 02:33:37;;;;;;;9.68;6.80;;;;;;;10.48;91.47;98138.93;1717821;81;20979;-84
2022/05/13 02:36:03;;;;;;;11.20;7.30;;;;;;;10.50;92.07;98128.62;1715015;80;20921;-85
2022/05/13 02:38:29;;;;;;;9.05;6.75;;;;;;;10.53;91.14;98123.48;1730126;82;20985;-82
2022/05/13 02:41:13;;;;;;;13.15;6.67;;;;;;;10.49;92.24;98119.69;1722056;82;21496;-85
2022/05/13 02:43:44;;;;;;;14.13;6.15;;;;;;;10.52;90.77;98123.22;1738638;81;21425;-81
2022/05/13 02:46:10;;;;;;;7.80;5.95;;;;;;;10.51;89.29;98129.72;1703421;82;21487;-82
2022/05/13 02:48:36;;;;;;;12.85;5.90;;;;;;;10.43;88.49;98129.75;1718477;80;21415;-85
2022/05/13 02:51:02;;;;;;;11.05;5.67;;;;;;;10.43;88.49;98129.75;1714916;83;20891;-84
2022/05/13 02:53:28;;;;;;;8.48;6.10;;;;;;;10.47;88.80;98136.77;1721891;80;21069;-85
2022/05/13 02:55:54;;;;;;;9.78;5.55;;;;;;;10.47;88.24;98138.12;1715240;83;21152;-85
2022/05/13 02:58:20;;;;;;;10.70;6.75;;;;;;;10.49;91.53;98132.42;1708672;80;20982;-85
2022/05/13 03:00:46;;;;;;;8.50;6.22;;;;;;;10.57;89.81;98136.73;1740768;80;21067;-85
2022/05/13 03:03:12;;;;;;;16.75;6.42;;;;;;;10.57;90.45;98138.08;1743209;81;20933;-82
2022/05/13 03:05:38;;;;;;;14.03;7.10;;;;;;;10.58;90.54;98137.53;1720638;82;21004;-82
2022/05/13 03:08:07;;;;;;;11.85;6.15;;;;;;;10.58;92.45;98130.22;1709517;82;21123;-81
2022/05/13 03:10:36;;;;;;;10.58;7.45;;;;;;;10.62;90.91;98135.36;1716085;80;21042;-84
2022/05/13 03:13:05;;;;;;;12.98;6.95;;;;;;;10.59;91.39;98130.48;1713764;82;21022;-85
2022/05/13 03:15:31;;;;;;;13.50;5.90;;;;;;;10.61;90.79;98128.88;1716205;80;21006;-85
2022/05/13 03:17:57;;;;;;;11.40;5.83;;;;;;;10.61;89.15;98126.97;1727445;80;21066;-84
2022/05/13 03:20:23;;;;;;;10.30;5.85;;;;;;;10.57;89.82;98126.44;1719733;80;21104;-84
2022/05/13 03:22:51;;;;;;;9.50;6.87;;;;;;;10.57;89.18;98129.95;1717799;80;20987;-84
2022/05/13 03:25:18;;;;;;;10.30;6.62;;;;;;;10.55;89.79;98135.39;1720703;80;21016;-85
2022/05/13 03:27:44;;;;;;;7.70;5.17;;;;;;;10.55;89.79;98135.39;1710756;82;21021;-81
2022/05/13 03:30:13;;;;;;;10.98;6.70;;;;;;;10.50;88.99;98129.43;1717313;80;21002;-81
2022/05/13 03:32:39;;;;;;;13.13;6.30;;;;;;;10.59;88.90;98137.25;1711282;82;26260;-85
2022/05/13 03:35:07;;;;;;;10.68;6.83;;;;;;;10.54;91.71;98135.94;1716836;80;20942;-81
2022/05/13 03:37:33;;;;;;;10.25;7.22;;;;;;;10.58;92.99;98134.83;1728640;80;21019;-81
2022/05/13 03:39:59;;;;;;;11.12;6.95;;;;;;;10.63;91.64;98136.17;1728397;80;20836;-81
2022/05/13 03:42:25;;;;;;;12.60;8.03;;;;;;;10.65;91.72;98131.28;1730205;80;21462;-85
2022/05/13 03:44:51;;;;;;;10.48;6.30;;;;;;;10.66;92.66;98128.29;1743253;82;22126;-81
2022/05/13 03:47:17;;;;;;;11.53;6.50;;;;;;;10.67;92.15;98133.97;1743147;81;20914;-80
2022/05/13 03:49:43;;;;;;;10.65;6.97;;;;;;;10.65;91.83;98130.73;1743045;82;20866;-82
2022/05/13 03:52:10;;;;;;;9.65;6.55;;;;;;;10.66;91.64;98134.25;1742975;81;21558;-85
2022/05/13 03:54:38;;;;;;;9.93;6.47;;;;;;;10.67;91.46;98129.09;1743040;82;21075;-84
2022/05/13 03:57:06;;;;;;;13.43;6.97;;;;;;;10.62;92.26;98125.88;1743199;81;21756;-84
2022/05/13 03:59:33;;;;;;;11.25;6.47;;;;;;;10.67;91.77;98130.45;1716651;80;20963;-85
2022/05/13 04:01:59;;;;;;;9.30;6.03;;;;;;;10.76;91.06;98137.46;1728464;81;21065;-82
2022/05/13 04:04:29;;;;;;;10.25;6.35;;;;;;;10.80;90.48;98150.74;1712075;82;20998;-82
2022/05/13 04:09:37;;;;;;;9.50;6.53;;;;;;;10.84;90.61;98153.95;1729615;82;21444;-82
2022/05/13 04:17:34;;;;;;;17.60;8.05;;;;;;;10.87;90.09;98156.68;1737693;81;21438;-85
2022/05/13 04:19:59;;;;;;;10.20;7.60;;;;;;;10.83;91.32;98162.38;1716297;80;20899;-82
2022/05/13 04:22:25;;;;;;;11.95;7.10;;;;;;;10.88;90.46;98165.08;1716962;80;21242;-85
2022/05/13 04:24:52;;;;;;;8.63;6.80;;;;;;;10.93;90.05;98167.20;1738819;82;21000;-85
2022/05/13 04:27:19;;;;;;;11.85;7.15;;;;;;;11.01;89.05;98164.45;1734962;82;21045;-83
2022/05/13 04:29:45;;;;;;;15.20;8.30;;;;;;;11.01;90.35;98168.52;1723021;80;21537;-82
2022/05/13 04:32:10;;;;;;;16.70;7.08;;;;;;;11.08;90.81;98166.88;1742548;81;20977;-86
2022/05/13 04:34:36;;;;;;;14.25;6.95;;;;;;;11.15;90.53;98164.13;1726457;80;21359;-85
2022/05/13 04:37:03;;;;;;;37.17;24.98;;;;;;;11.26;89.42;98159.44;1743080;81;20932;-85
2022/05/13 04:39:29;;;;;;;23.55;11.28;;;;;;;11.39;88.95;98168.33;1742939;82;21072;-82
2022/05/13 04:44:39;;;;;;;19.98;9.00;;;;;;;11.63;88.31;98177.13;1742926;82;21032;-86
2022/05/13 04:48:15;;;;;;;13.75;9.25;;;;;;;11.76;87.98;98184.62;1743219;81;21321;-86
2022/05/13 04:49:33;;;;;;;13.38;7.15;;;;;;;11.81;87.72;98182.72;1738707;82;21001;-82
2022/05/13 04:51:59;;;;;;;10.28;6.08;;;;;;;11.91;88.12;98185.09;1743239;81;20909;-86
2022/05/13 04:54:25;;;;;;;12.55;7.28;;;;;;;11.94;87.86;98175.81;1742890;82;20914;-86
2022/05/13 04:56:51;;;;;;;10.90;7.22;;;;;;;12.01;87.41;98177.66;1743361;81;21674;-85
2022/05/13 04:59:17;;;;;;;16.07;7.42;;;;;;;12.12;87.23;98185.16;1743101;82;21174;-82
2022/05/13 05:01:43;;;;;;;13.50;7.53;;;;;;;12.24;86.92;98179.36;1743215;81;20944;-83
2022/05/13 05:04:09;;;;;;;12.68;6.37;;;;;;;12.36;86.30;98177.86;1716298;80;21595;-86
2022/05/13 05:06:36;;;;;;;15.68;6.83;;;;;;;12.36;85.80;98177.86;1713758;83;20961;-83
2022/05/13 05:09:02;;;;;;;11.25;6.75;;;;;;;12.32;85.97;98175.47;1736615;82;21497;-82
2022/05/13 05:11:28;;;;;;;13.85;7.60;;;;;;;12.39;86.16;98173.75;1743436;81;21602;-86
2022/05/13 05:13:53;;;;;;;10.35;6.80;;;;;;;12.47;86.32;98171.77;1728540;80;20897;-83
2022/05/13 05:16:22;;;;;;;10.40;6.05;;;;;;;12.54;86.21;98172.24;1732794;82;20977;-86
2022/05/13 05:18:47;;;;;;;9.78;5.70;;;;;;;12.61;85.92;98180.06;1729044;80;21030;-86
2022/05/13 05:21:13;;;;;;;11.55;6.62;;;;;;;12.67;85.45;98185.16;1717179;82;20926;-83
2022/05/13 05:23:42;;;;;;;15.53;7.12;;;;;;;12.67;85.24;98184.34;1713695;80;21780;-83
2022/05/13 05:26:07;;;;;;;12.25;7.58;;;;;;;12.65;85.19;98184.64;1715175;82;21079;-83
2022/05/13 05:28:34;;;;;;;12.82;6.80;;;;;;;12.65;85.53;98186.55;1710139;80;20902;-82
2022/05/13 05:31:02;;;;;;;11.05;6.70;;;;;;;12.71;86.21;98193.53;1742163;80;20993;-82
2022/05/13 05:33:28;;;;;;;9.93;7.05;;;;;;;12.80;85.83;98189.63;1724471;80;20990;-86
2022/05/13 05:35:55;;;;;;;13.65;7.25;;;;;;;12.86;86.31;98189.28;1728692;80;21064;-86
2022/05/13 05:38:21;;;;;;;11.65;8.03;;;;;;;12.93;85.79;98195.19;1728447;80;21106;-82
2022/05/13 05:40:47;;;;;;;9.83;6.35;;;;;;;12.99;85.34;98191.31;1708642;82;20871;-86
2022/05/13 05:43:15;;;;;;;14.70;7.58;;;;;;;13.03;85.39;98189.36;1714612;80;21031;-82
2022/05/13 05:45:41;;;;;;;15.23;7.10;;;;;;;13.12;84.94;98194.41;1725928;80;21029;-86
2022/05/13 05:48:12;;;;;;;14.30;7.08;;;;;;;13.21;85.15;98188.05;1728436;80;21174;-87
2022/05/13 05:50:38;;;;;;;11.10;6.42;;;;;;;13.36;84.55;98188.41;1718332;80;21024;-82
2022/05/13 05:53:04;;;;;;;15.95;7.50;;;;;;;13.46;84.41;98184.73;1724832;82;21036;-86
2022/05/13 05:58:16;;;;;;;44.90;33.83;;;;;;;13.67;83.75;98194.23;1743118;81;21075;-82
2022/05/13 06:00:45;;;;;;;18.00;8.93;;;;;;;13.77;82.96;98194.07;1719740;82;21066;-83
2022/05/13 06:03:11;;;;;;;14.20;9.70;;;;;;;13.80;81.59;98188.58;1708779;82;21553;-82
2022/05/13 06:05:37;;;;;;;13.55;9.60;;;;;;;13.86;81.12;98181.95;1738852;80;20913;-82
2022/05/13 06:08:04;;;;;;;14.23;9.23;;;;;;;13.96;80.57;98175.52;1736958;82;20862;-86
2022/05/13 06:10:30;;;;;;;12.45;7.83;;;;;;;14.04;81.33;98177.57;1732524;80;21028;-83
2022/05/13 06:12:56;;;;;;;10.10;7.08;;;;;;;14.27;81.34;98169.81;1716202;82;21111;-86
2022/05/13 06:15:22;;;;;;;11.60;7.22;;;;;;;14.45;81.40;98172.25;1727991;81;21008;-83
2022/05/13 06:17:51;;;;;;;11.60;7.58;;;;;;;14.66;80.73;98174.02;1732355;82;20967;-87
2022/05/13 06:20:19;;;;;;;13.28;7.87;;;;;;;14.75;80.26;98161.84;1713541;82;21099;-86
2022/05/13 06:22:45;;;;;;;14.05;7.83;;;;;;;14.81;79.79;98164.18;1753298;80;21005;-83
2022/05/13 06:25:13;;;;;;;16.00;7.08;;;;;;;14.95;79.74;98171.81;1714505;80;21363;-86
2022/05/13 06:27:39;;;;;;;15.70;6.58;;;;;;;15.08;79.22;98166.08;1719102;82;21064;-86
2022/05/13 06:30:09;;;;;;;8.43;6.12;;;;;;;15.37;78.99;98160.80;1727871;80;21608;-87
2022/05/13 06:32:35;;;;;;;12.50;6.83;;;;;;;15.61;78.32;98168.77;1710585;82;21540;-84
2022/05/13 06:35:01;;;;;;;12.98;6.75;;;;;;;15.75;76.61;98166.80;1713985;80;21010;-82
2022/05/13 06:37:27;;;;;;;9.38;6.35;;;;;;;15.90;76.64;98165.63;1728425;80;21891;-82
2022/05/13 06:39:53;;;;;;;18.73;6.90;;;;;;;15.91;75.32;98169.41;1737896;82;20890;-82
2022/05/13 06:42:19;;;;;;;13.75;7.45;;;;;;;15.88;74.04;98165.11;1742962;81;20964;-82
2022/05/13 06:44:44;;;;;;;11.68;7.37;;;;;;;16.08;75.18;98165.43;1728805;80;20909;-85
2022/05/13 06:47:10;;;;;;;8.35;6.92;;;;;;;16.29;74.71;98162.16;1719477;80;20899;-86
2022/05/13 06:49:36;;;;;;;12.55;7.78;;;;;;;16.40;74.66;98163.50;1725982;80;21167;-86
2022/05/13 06:52:03;;;;;;;15.35;7.37;;;;;;;16.63;74.47;98161.52;1739999;80;21655;-86
2022/05/13 06:54:31;;;;;;;11.12;7.28;;;;;;;16.90;74.31;98156.42;1731960;80;21360;-86
2022/05/13 06:56:57;;;;;;;13.80;7.40;;;;;;;17.27;74.06;98154.27;1729960;80;21158;-86
2022/05/13 06:59:23;;;;;;;12.37;7.72;;;;;;;17.56;72.60;98150.33;1723668;80;20898;-86
2022/05/13 07:01:49;;;;;;;10.48;6.33;;;;;;;17.78;71.77;98151.34;1738103;80;21870;-86
2022/05/13 07:04:15;;;;;;;12.68;8.48;;;;;;;17.91;68.37;98140.75;1726688;80;20879;-86
2022/05/13 07:06:41;;;;;;;13.85;6.47;;;;;;;17.71;68.40;98143.61;1723760;80;21213;-86
2022/05/13 07:09:07;;;;;;;13.55;7.62;;;;;;;17.73;67.23;98139.41;1723018;80;21028;-86
2022/05/13 07:11:33;;;;;;;14.38;6.30;;;;;;;17.58;68.31;98143.97;1729693;80;21100;-86
2022/05/13 07:14:00;;;;;;;12.50;7.35;;;;;;;17.60;67.68;98141.70;1727414;80;21277;-86
2022/05/13 07:16:26;;;;;;;9.93;7.37;;;;;;;17.60;67.99;98145.00;1733285;80;21123;-85
2022/05/13 07:18:52;;;;;;;18.87;11.68;;;;;;;17.98;68.26;98141.08;1725008;80;21153;-85
2022/05/13 07:21:18;;;;;;;33.70;18.42;;;;;;;18.77;68.10;98133.66;1720575;81;20949;-86
2022/05/13 07:23:44;;;;;;;16.05;10.35;;;;;;;19.49;66.01;98133.72;1723109;80;21033;-86
2022/05/13 07:26:10;;;;;;;13.28;8.65;;;;;;;19.99;65.68;98128.91;1756730;80;21036;-86
2022/05/13 07:28:38;;;;;;;13.48;6.92;;;;;;;20.20;63.60;98120.63;1738828;80;21103;-86
2022/05/13 07:31:05;;;;;;;22.45;7.20;;;;;;;20.03;62.24;98111.75;1714155;80;21110;-87
2022/05/13 07:33:31;;;;;;;16.93;6.92;;;;;;;20.17;62.06;98112.26;1713693;80;21070;-86
2022/05/13 07:35:57;;;;;;;9.40;5.80;;;;;;;20.36;62.31;98111.14;1725234;80;22415;-86
2022/05/13 07:38:23;;;;;;;11.93;6.87;;;;;;;20.50;62.60;98103.95;1725682;80;21286;-87
2022/05/13 07:43:34;;;;;;;9.68;5.72;;;;;;;20.64;61.17;98103.05;1743187;80;21124;-87
2022/05/13 07:46:02;;;;;;;10.25;5.62;;;;;;;20.75;60.66;98103.39;1715501;81;50149;-87
2022/05/13 07:48:28;;;;;;;9.05;6.00;;;;;;;20.90;61.44;98101.33;1737954;80;21445;-86
2022/05/13 07:50:54;;;;;;;13.00;6.65;;;;;;;21.06;60.50;98093.17;1725477;80;21208;-87
2022/05/13 07:53:20;;;;;;;9.03;5.53;;;;;;;21.06;59.30;98095.34;1727371;80;20973;-86
2022/05/13 07:55:46;;;;;;;10.08;5.65;;;;;;;20.97;58.29;98098.00;1731871;81;20957;-85
2022/05/13 07:58:12;;;;;;;15.05;5.95;;;;;;;21.03;59.31;98087.78;1724724;80;20893;-87
2022/05/13 08:00:38;;;;;;;14.75;6.33;;;;;;;21.03;60.05;98080.09;1724953;80;20990;-87
2022/05/13 08:03:11;;;;;;;16.00;6.25;;;;;;;21.13;60.38;98079.04;1731168;80;21128;-87
2022/05/13 08:05:42;;;;;;;11.43;5.83;;;;;;;21.24;60.03;98075.22;1719657;81;20989;-87
2022/05/13 08:08:14;;;;;;;7.20;4.92;;;;;;;21.36;59.43;98079.37;1716533;80;21018;-87
2022/05/13 08:10:44;;;;;;;7.53;4.67;;;;;;;21.52;58.99;98075.27;1718329;81;21041;-88
2022/05/13 08:13:11;;;;;;;13.90;5.40;;;;;;;21.70;58.64;98079.91;1724742;80;21049;-87
2022/05/13 08:15:38;;;;;;;14.05;4.85;;;;;;;21.85;58.67;98081.12;1719507;80;21142;-87
2022/05/13 08:18:04;;;;;;;11.65;5.08;;;;;;;21.90;58.03;98075.36;1724009;80;21659;-87
2022/05/13 08:20:30;;;;;;;8.58;3.87;;;;;;;22.06;57.41;98074.02;1732212;80;21151;-88
2022/05/13 08:22:57;;;;;;;12.05;4.40;;;;;;;22.17;57.53;98075.13;1711872;82;21056;-83
2022/05/13 08:25:23;;;;;;;7.95;3.67;;;;;;;22.30;57.74;98075.25;1722749;81;20998;-83
2022/05/13 08:27:49;;;;;;;35.13;14.10;;;;;;;22.28;55.74;98078.15;1737148;80;21180;-83
2022/05/13 08:30:16;;;;;;;8.15;4.62;;;;;;;22.33;56.35;98075.94;1728924;80;21087;-83
2022/05/13 08:32:42;;;;;;;11.33;3.85;;;;;;;22.07;54.70;98078.38;1727585;80;21044;-83
2022/05/13 08:35:09;;;;;;;9.83;4.40;;;;;;;22.14;55.82;98078.59;1733225;81;20964;-83
2022/05/13 08:37:46;;;;;;;13.80;8.65;;;;;;;22.13;53.78;98072.83;1740878;80;21135;-83
2022/05/13 08:40:18;;;;;;;10.32;5.33;;;;;;;22.03;54.01;98073.32;1734375;80;22256;-83
2022/05/13 08:42:45;;;;;;;4.62;3.55;;;;;;;22.09;54.24;98069.98;1735378;80;21419;-83
2022/05/13 08:45:11;;;;;;;7.12;3.90;;;;;;;22.05;52.88;98078.73;1724159;80;21097;-83
2022/05/13 08:47:53;;;;;;;8.95;3.75;;;;;;;22.34;53.12;98072.02;1724777;80;21850;-83
2022/05/13 08:50:38;;;;;;;6.55;3.90;;;;;;;22.64;50.63;98061.30;1738345;80;21056;-83
2022/05/13 08:53:21;;;;;;;6.45;2.98;;;;;;;22.58;46.88;98066.09;1711892;81;21518;-83
2022/05/13 08:55:51;;;;;;;7.47;3.45;;;;;;;22.90;47.18;98071.84;1717878;81;21065;-83
2022/05/13 08:58:32;;;;;;;7.20;3.67;;;;;;;23.29;47.85;98073.28;1725413;81;21020;-83
2022/05/13 09:01:00;;;;;;;7.65;2.90;;;;;;;23.46;46.77;98077.59;1736306;80;21056;-84
2022/05/13 09:03:44;;;;;;;7.25;3.72;;;;;;;22.71;46.19;98082.77;1734765;80;21108;-83
2022/05/13 09:06:39;;;;;;;8.50;3.47;;;;;;;22.81;46.13;98083.60;1732170;80;21125;-83
2022/05/13 09:09:09;;;;;;;10.00;3.87;;;;;;;22.44;47.37;98088.63;1714157;81;21087;-84
2022/05/13 09:12:08;;;;;;;16.77;4.95;;;;;;;22.12;48.17;98090.55;1731057;81;21037;-83
2022/05/13 09:14:42;;;;;;;12.07;3.77;;;;;;;22.11;48.35;98088.36;1733446;80;21148;-83
2022/05/13 09:17:32;;;;;;;9.28;3.87;;;;;;;21.67;48.54;98094.41;1722099;80;21633;-83
2022/05/13 09:20:01;;;;;;;7.75;4.03;;;;;;;21.51;49.53;98086.66;1718734;80;21163;-83
2022/05/13 09:22:39;;;;;;;6.33;3.83;;;;;;;21.30;50.36;98099.25;1715325;80;22312;-83
2022/05/13 09:25:06;;;;;;;8.83;4.03;;;;;;;21.18;50.64;98097.84;1719872;81;21052;-83
2022/05/13 09:27:50;;;;;;;10.05;4.03;;;;;;;21.29;51.12;98085.24;1730808;80;21557;-83
2022/05/13 09:30:20;;;;;;;9.10;4.15;;;;;;;21.14;51.44;98085.35;1734363;80;21067;-83
2022/05/13 09:32:46;;;;;;;6.65;4.03;;;;;;;21.48;51.36;98084.03;1733236;80;21482;-83
2022/05/13 09:35:23;;;;;;;8.03;3.70;;;;;;;21.46;50.75;98073.14;1737330;80;20905;-83
2022/05/13 09:37:49;;;;;;;11.55;4.03;;;;;;;21.63;50.73;98076.41;1723314;80;21099;-84
2022/05/13 09:40:24;;;;;;;6.40;3.95;;;;;;;21.93;50.68;98070.50;1719949;80;20883;-83
2022/05/13 09:42:53;;;;;;;17.42;5.35;;;;;;;22.15;50.10;98071.34;1732412;80;21676;-83
2022/05/13 09:45:30;;;;;;;11.85;4.40;;;;;;;22.26;50.25;98079.09;1729746;80;21033;-83
2022/05/13 09:48:18;;;;;;;9.70;4.35;;;;;;;21.88;50.92;98088.13;1736411;80;21088;-83
2022/05/13 09:50:47;;;;;;;7.42;4.65;;;;;;;21.74;51.59;98080.83;1683349;82;21099;-83
2022/05/13 09:53:24;;;;;;;10.25;4.90;;;;;;;21.52;52.47;98079.41;1715347;80;21507;-83
2022/05/13 09:55:54;;;;;;;11.63;5.67;;;;;;;21.72;52.48;98069.36;1727559;80;21057;-83
2022/05/13 09:58:27;;;;;;;13.93;4.65;;;;;;;21.49;52.94;98054.52;1731937;80;21766;-83
2022/05/13 10:01:09;;;;;;;12.90;5.17;;;;;;;21.54;52.76;98055.66;1731704;80;21037;-83
2022/05/13 10:03:38;;;;;;;10.58;5.20;;;;;;;21.21;53.90;98058.02;1736420;80;20977;-88
2022/05/13 10:06:17;;;;;;;;;;;;;;;20.91;54.59;98058.87;1735432;80;20990;-88
2022/05/13 10:13:57;;;;;;;8.93;4.62;;;;;;;20.60;55.56;98062.23;1730065;81;20355;-87
2022/05/13 10:14:28;;;;;;;10.03;4.33;;;;;;;20.96;54.85;98053.13;1730118;80;21140;-88
2022/05/13 10:16:57;;;;;;;9.75;5.08;;;;;;;21.25;54.78;98047.89;1730169;80;21132;-88
2022/05/13 10:19:51;;;;;;;9.20;4.65;;;;;;;21.73;53.52;98035.69;1699537;81;21052;-88
2022/05/13 10:22:41;;;;;;;12.35;5.40;;;;;;;22.28;52.80;98036.17;1713973;82;21053;-88
2022/05/13 10:25:14;;;;;;;14.13;5.10;;;;;;;23.29;50.76;98024.32;1705414;82;21086;-87
2022/05/13 10:27:45;;;;;;;10.58;5.05;;;;;;;23.13;49.71;98017.25;1728647;80;20997;-88
2022/05/13 10:30:16;;;;;;;12.60;4.60;;;;;;;23.34;50.39;98017.13;1721228;81;21131;-87
2022/05/13 10:33:02;;;;;;;7.92;5.20;;;;;;;23.03;50.22;98009.75;1644375;84;21046;-88
2022/05/13 10:35:33;;;;;;;6.25;4.00;;;;;;;23.11;49.68;98009.33;1718191;80;20997;-88
2022/05/13 10:38:12;;;;;;;8.88;4.60;;;;;;;23.79;49.63;98007.95;1726633;80;21796;-88
2022/05/13 10:40:43;;;;;;;7.80;4.20;;;;;;;23.78;48.70;98009.12;1730828;80;21029;-83
2022/05/13 10:43:17;;;;;;;7.83;3.77;;;;;;;23.99;49.38;98005.34;1724337;80;21064;-83
2022/05/13 10:45:44;;;;;;;9.18;4.20;;;;;;;24.49;48.10;98013.14;1727278;80;20986;-87
2022/05/13 10:48:27;;;;;;;8.88;4.17;;;;;;;24.64;47.82;98001.70;1724363;80;21528;-88
2022/05/13 10:51:01;;;;;;;8.15;4.25;;;;;;;25.88;44.92;97990.83;1726618;80;21129;-88
2022/05/13 10:54:02;;;;;;;14.55;4.65;;;;;;;27.54;42.31;97976.28;1728060;80;21089;-89
2022/05/13 10:56:36;;;;;;;7.65;3.33;;;;;;;26.92;42.22;97973.63;1721775;80;21049;-88
2022/05/13 10:59:25;;;;;;;10.35;3.52;;;;;;;26.54;41.10;97966.02;1720523;80;21048;-89
2022/05/13 11:02:23;;;;;;;18.12;4.17;;;;;;;27.30;40.72;97960.30;1709284;81;22774;-88
2022/05/13 11:04:59;;;;;;;;;;;;;;;27.64;40.90;97960.20;1729686;80;22273;-89
2022/05/13 11:07:36;;;;;;;58.17;9.65;;;;;;;26.12;40.63;97956.74;1727736;81;20569;-89
2022/05/13 11:10:21;;;;;;;51.65;7.50;;;;;;;25.32;42.53;97964.64;1730176;81;21139;-88
2022/05/13 11:13:13;;;;;;;38.23;7.58;;;;;;;24.80;44.58;97969.09;1727700;80;21402;-86
2022/05/13 11:16:08;;;;;;;22.37;5.08;;;;;;;24.33;45.50;97957.89;1727833;80;21076;-86
2022/05/13 11:18:42;;;;;;;149.47;19.82;;;;;;;23.78;46.94;97957.36;1729129;80;21163;-87
2022/05/13 11:21:20;;;;;;;33.05;7.15;;;;;;;23.77;47.48;97959.11;1718788;80;21288;-87
2022/05/13 11:27:41;;;;;;;25.65;7.08;;;;;;;25.32;44.51;97957.70;1709315;81;21046;-84
2022/05/13 11:30:17;;;;;;;17.07;4.90;;;;;;;26.09;42.61;97954.16;1703982;80;21009;-83
2022/05/13 11:33:16;;;;;;;10.13;4.35;;;;;;;25.88;43.35;97948.39;1721272;81;21082;-84
2022/05/13 11:35:50;;;;;;;13.38;4.42;;;;;;;25.01;43.63;97936.70;1724189;80;21433;-84
2022/05/13 11:38:21;;;;;;;7.62;4.00;;;;;;;27.03;41.76;97937.52;1723990;80;21426;-84
2022/05/13 11:41:04;;;;;;;9.48;3.55;;;;;;;28.43;39.40;97938.83;1693332;82;21490;-84
2022/05/13 11:43:56;;;;;;;6.20;3.67;;;;;;;28.73;38.29;97934.20;1723581;80;21117;-84
2022/05/13 11:46:44;;;;;;;7.15;3.90;;;;;;;30.50;34.82;97923.80;1721075;81;21036;-84
2022/05/13 11:49:17;;;;;;;4.40;3.27;;;;;;;32.59;30.10;97919.98;1725875;80;21151;-84
2022/05/13 11:51:43;;;;;;;10.90;3.40;;;;;;;32.59;30.10;97919.98;1738143;80;21019;-84
2022/05/13 11:54:25;;;;;;;10.38;3.80;;;;;;;33.66;30.20;97928.44;1736822;80;20902;-85
2022/05/13 11:57:19;;;;;;;6.78;3.33;;;;;;;34.10;27.50;97917.20;1741706;80;22230;-85
2022/05/13 11:59:51;;;;;;;9.63;3.80;;;;;;;33.24;28.12;97904.25;1722763;80;21057;-85
2022/05/13 12:02:33;;;;;;;9.95;3.00;;;;;;;29.89;31.98;97899.17;1732258;80;21032;-85
2022/05/13 12:05:19;;;;;;;7.05;3.10;;;;;;;28.50;34.67;97895.63;1718889;80;21157;-84
2022/05/13 12:07:52;;;;;;;15.00;3.47;;;;;;;27.94;35.68;97898.63;1737190;80;21092;-84